createdAt,value
2022-07-31T00:01:26.440Z,100967.06
2022-07-31T00:03:53.840Z,100974.13
2022-07-31T00:06:23.270Z,100969.00
2022-07-31T00:08:50.955Z,100978.22
2022-07-31T00:11:18.286Z,100980.84
2022-07-31T00:13:58.223Z,100979.25
2022-07-31T00:16:26.214Z,100980.63
2022-07-31T00:18:53.577Z,100984.56
2022-07-31T00:21:26.853Z,100981.63
2022-07-31T00:23:56.545Z,100984.22
2022-07-31T00:26:24.143Z,100978.22
2022-07-31T00:28:52.818Z,100980.13
2022-07-31T00:31:21.130Z,100975.09
2022-07-31T00:33:48.440Z,100979.56
2022-07-31T00:36:18.258Z,100983.66
2022-07-31T00:38:45.555Z,100975.63
2022-07-31T00:41:12.978Z,100975.28
2022-07-31T00:43:40.377Z,100976.53
2022-07-31T00:46:14.337Z,100975.09
2022-07-31T00:48:42.171Z,100981.38
2022-07-31T00:51:09.496Z,100970.75
2022-07-31T00:53:38.881Z,100963.13
2022-07-31T00:56:06.284Z,100964.00
2022-07-31T00:58:33.621Z,100961.16
2022-07-31T01:01:01.912Z,100958.69
2022-07-31T01:03:29.249Z,100955.47
2022-07-31T01:05:56.502Z,100961.72
2022-07-31T01:08:24.343Z,100950.00
2022-07-31T01:11:04.680Z,100948.13
2022-07-31T01:13:52.978Z,100943.06
2022-07-31T01:16:20.514Z,100942.59
2022-07-31T01:18:47.830Z,100942.78
2022-07-31T01:21:25.595Z,100943.22
2022-07-31T01:24:15.701Z,100941.09
2022-07-31T01:26:59.858Z,100939.38
2022-07-31T01:29:28.897Z,100945.00
2022-07-31T01:32:07.638Z,100943.53
2022-07-31T01:34:52.761Z,100944.50
2022-07-31T01:37:26.217Z,100940.91
2022-07-31T01:40:07.055Z,100941.50
2022-07-31T01:42:34.961Z,100936.03
2022-07-31T01:45:02.381Z,100932.25
2022-07-31T01:47:30.099Z,100933.66
2022-07-31T01:49:58.450Z,100932.63
2022-07-31T01:52:26.138Z,100930.16
2022-07-31T01:54:55.860Z,100936.50
2022-07-31T01:57:23.826Z,100944.09
2022-07-31T01:59:58.616Z,100943.16
2022-07-31T02:02:46.229Z,100944.69
2022-07-31T02:05:15.026Z,100944.88
2022-07-31T02:07:42.425Z,100944.72
2022-07-31T02:10:13.086Z,100948.28
2022-07-31T02:12:40.615Z,100955.56
2022-07-31T02:15:09.223Z,100947.00
2022-07-31T02:17:41.125Z,100941.47
2022-07-31T02:20:24.244Z,100949.94
2022-07-31T02:22:58.183Z,100943.69
2022-07-31T02:25:33.389Z,100952.91
2022-07-31T02:28:03.643Z,100958.75
2022-07-31T02:30:39.087Z,100960.00
2022-07-31T02:33:12.041Z,100955.91
2022-07-31T02:35:43.930Z,100956.00
2022-07-31T02:38:22.918Z,100947.78
2022-07-31T02:40:53.566Z,100947.09
2022-07-31T02:43:20.838Z,100948.69
2022-07-31T02:45:48.252Z,100942.19
2022-07-31T02:48:15.617Z,100940.53
2022-07-31T02:50:47.543Z,100947.13
2022-07-31T02:53:17.882Z,100939.44
2022-07-31T02:55:45.741Z,100937.22
2022-07-31T02:58:15.354Z,100930.88
2022-07-31T03:00:47.834Z,100934.16
2022-07-31T03:03:18.481Z,100930.81
2022-07-31T03:05:49.035Z,100931.78
2022-07-31T03:08:16.425Z,100929.56
2022-07-31T03:10:47.370Z,100931.25
2022-07-31T03:13:17.123Z,100936.88
2022-07-31T03:15:50.188Z,100939.84
2022-07-31T03:18:19.097Z,100939.78
2022-07-31T03:20:46.845Z,100940.03
2022-07-31T03:23:14.751Z,100940.69
2022-07-31T03:25:52.239Z,100950.47
2022-07-31T03:28:23.832Z,100939.25
2022-07-31T03:30:51.954Z,100942.78
2022-07-31T03:33:27.415Z,100940.41
2022-07-31T03:35:54.810Z,100941.56
2022-07-31T03:38:40.819Z,100942.22
2022-07-31T03:41:11.011Z,100941.50
2022-07-31T03:43:44.280Z,100947.19
2022-07-31T03:46:18.652Z,100948.41
2022-07-31T03:48:52.749Z,100943.84
2022-07-31T03:51:23.773Z,100942.16
2022-07-31T03:53:52.134Z,100947.84
2022-07-31T03:56:49.134Z,100944.63
2022-07-31T03:59:18.198Z,100944.13
2022-07-31T04:01:57.622Z,100935.59
2022-07-31T04:04:58.630Z,100929.06
2022-07-31T04:07:26.084Z,100937.00
2022-07-31T04:09:53.536Z,100933.69
2022-07-31T04:12:23.702Z,100933.97
2022-07-31T04:14:51.180Z,100933.84
2022-07-31T04:17:22.352Z,100933.94
2022-07-31T04:19:49.859Z,100927.91
2022-07-31T04:22:17.123Z,100934.72
2022-07-31T04:24:46.833Z,100931.72
2022-07-31T04:27:28.642Z,100939.22
2022-07-31T04:29:56.595Z,100931.81
2022-07-31T04:32:24.376Z,100940.09
2022-07-31T04:34:55.263Z,100941.47
2022-07-31T04:37:22.690Z,100938.09
2022-07-31T04:39:50.196Z,100946.91
2022-07-31T04:42:17.529Z,100941.44
2022-07-31T04:44:45.257Z,100942.59
2022-07-31T04:47:12.801Z,100944.41
2022-07-31T04:49:47.127Z,100947.56
2022-07-31T04:52:17.223Z,100947.59
2022-07-31T04:54:49.459Z,100944.13
2022-07-31T04:57:21.381Z,100950.34
2022-07-31T04:59:59.632Z,100939.06
2022-07-31T05:02:34.013Z,100947.38
2022-07-31T05:05:01.672Z,100940.31
2022-07-31T05:07:35.702Z,100935.56
2022-07-31T05:10:08.839Z,100932.63
2022-07-31T05:12:36.733Z,100937.06
2022-07-31T05:15:04.254Z,100930.41
2022-07-31T05:17:35.770Z,100925.22
2022-07-31T05:20:43.583Z,100916.31
2022-07-31T05:23:30.275Z,100911.78
2022-07-31T05:26:15.440Z,100921.66
2022-07-31T05:28:49.658Z,100916.63
2022-07-31T05:31:19.737Z,100921.59
2022-07-31T05:33:47.812Z,100923.91
2022-07-31T05:36:15.720Z,100927.47
2022-07-31T05:38:43.392Z,100934.44
2022-07-31T05:41:33.460Z,100939.78
2022-07-31T05:44:24.675Z,100930.19
2022-07-31T05:49:41.428Z,100930.44
2022-07-31T05:52:08.958Z,100925.22
2022-07-31T05:54:38.496Z,100928.50
2022-07-31T05:57:33.407Z,100935.72
2022-07-31T06:00:04.446Z,100932.50
2022-07-31T06:02:41.336Z,100939.94
2022-07-31T06:05:29.793Z,100945.91
2022-07-31T06:07:57.319Z,100946.44
2022-07-31T06:10:27.129Z,100943.31
2022-07-31T06:12:55.254Z,100943.00
2022-07-31T06:15:23.218Z,100944.19
2022-07-31T06:17:50.591Z,100946.59
2022-07-31T06:20:27.268Z,100953.75
2022-07-31T06:22:55.541Z,100944.94
2022-07-31T06:25:25.417Z,100949.81
2022-07-31T06:27:59.996Z,100948.56
2022-07-31T06:30:30.841Z,100956.28
2022-07-31T06:32:58.135Z,100953.00
2022-07-31T06:35:32.151Z,100947.50
2022-07-31T06:38:24.614Z,100953.28
2022-07-31T06:41:43.711Z,100958.81
2022-07-31T06:44:46.378Z,100952.13
2022-07-31T06:47:32.487Z,100944.50
2022-07-31T06:50:06.004Z,100938.59
2022-07-31T06:52:45.827Z,100951.13
2022-07-31T06:55:13.326Z,100948.25
2022-07-31T06:57:41.503Z,100948.22
2022-07-31T07:00:19.982Z,100950.53
2022-07-31T07:02:48.321Z,100951.88
2022-07-31T07:05:16.081Z,100947.38
2022-07-31T07:07:43.407Z,100950.66
2022-07-31T07:10:10.925Z,100957.03
2022-07-31T07:12:57.107Z,100965.75
2022-07-31T07:15:24.509Z,100965.56
2022-07-31T07:17:51.832Z,100955.38
2022-07-31T07:20:55.830Z,100957.84
2022-07-31T07:23:23.203Z,100962.00
2022-07-31T07:26:07.857Z,100956.72
2022-07-31T07:29:07.787Z,100953.72
2022-07-31T07:31:35.120Z,100959.63
2022-07-31T07:34:06.079Z,100969.03
2022-07-31T07:36:33.767Z,100958.75
2022-07-31T07:39:09.292Z,100961.69
2022-07-31T07:41:38.577Z,100957.41
2022-07-31T07:44:09.406Z,100955.47
2022-07-31T07:46:37.870Z,100958.31
2022-07-31T07:49:06.832Z,100953.06
2022-07-31T07:51:59.552Z,100950.44
2022-07-31T07:54:40.090Z,100951.66
2022-07-31T07:57:22.624Z,100964.31
2022-07-31T08:00:08.188Z,100960.84
2022-07-31T08:03:02.722Z,100949.69
2022-07-31T08:05:32.803Z,100955.25
2022-07-31T08:08:00.598Z,100956.53
2022-07-31T08:10:50.693Z,100954.13
2022-07-31T08:13:26.296Z,100962.66
2022-07-31T08:16:22.758Z,100964.06
2022-07-31T08:18:54.818Z,100948.41
2022-07-31T08:21:22.807Z,100947.50
2022-07-31T08:23:52.849Z,100946.66
2022-07-31T08:26:20.859Z,100948.75
2022-07-31T08:28:49.853Z,100945.28
2022-07-31T08:31:18.478Z,100947.84
2022-07-31T08:34:02.512Z,100950.28
2022-07-31T08:36:29.998Z,100948.47
2022-07-31T08:38:57.368Z,100941.72
2022-07-31T08:41:42.789Z,100949.72
2022-07-31T08:44:11.503Z,100948.66
2022-07-31T08:46:39.276Z,100945.13
2022-07-31T08:49:09.697Z,100950.72
2022-07-31T08:51:51.167Z,100949.72
2022-07-31T08:54:37.558Z,100945.75
2022-07-31T08:57:05.010Z,100942.97
2022-07-31T08:59:44.047Z,100951.25
2022-07-31T09:02:11.857Z,100942.50
2022-07-31T09:04:52.770Z,100946.91
2022-07-31T09:07:21.519Z,100958.63
2022-07-31T09:09:51.518Z,100949.25
2022-07-31T09:12:32.342Z,100948.69
2022-07-31T09:15:04.837Z,100957.31
2022-07-31T09:17:35.862Z,100948.63
2022-07-31T09:20:04.373Z,100951.50
2022-07-31T09:22:34.607Z,100954.28
2022-07-31T09:25:21.165Z,100955.69
2022-07-31T09:27:48.601Z,100945.81
2022-07-31T09:30:16.870Z,100953.88
2022-07-31T09:33:16.675Z,100945.75
2022-07-31T09:35:59.995Z,100940.78
2022-07-31T09:38:32.769Z,100941.88
2022-07-31T09:41:55.638Z,100940.38
2022-07-31T09:44:15.651Z,100937.22
2022-07-31T09:46:44.750Z,100939.22
2022-07-31T09:49:12.388Z,100942.16
2022-07-31T09:51:41.992Z,100938.00
2022-07-31T09:54:21.184Z,100942.34
2022-07-31T09:57:10.245Z,100938.19
2022-07-31T09:59:38.769Z,100931.88
2022-07-31T10:02:06.345Z,100924.38
2022-07-31T10:04:33.687Z,100930.34
2022-07-31T10:07:01.518Z,100932.22
2022-07-31T10:09:29.309Z,100926.38
2022-07-31T10:12:16.347Z,100923.97
2022-07-31T10:14:44.910Z,100928.28
2022-07-31T10:17:13.045Z,100921.00
2022-07-31T10:20:35.981Z,100925.31
2022-07-31T10:23:42.033Z,100918.88
2022-07-31T10:26:09.451Z,100907.97
2022-07-31T10:28:37.284Z,100908.53
2022-07-31T10:31:04.836Z,100902.94
2022-07-31T10:33:47.750Z,100902.66
2022-07-31T10:36:34.541Z,100900.25
2022-07-31T10:39:08.706Z,100905.22
2022-07-31T10:41:55.234Z,100899.50
2022-07-31T10:44:27.656Z,100900.03
2022-07-31T10:47:14.148Z,100906.69
2022-07-31T10:50:00.040Z,100905.88
2022-07-31T10:52:38.402Z,100893.56
2022-07-31T10:55:18.331Z,100896.88
2022-07-31T10:58:08.603Z,100887.78
2022-07-31T11:00:43.918Z,100890.97
2022-07-31T11:03:46.461Z,100893.03
2022-07-31T11:06:21.681Z,100883.41
2022-07-31T11:08:54.202Z,100883.69
2022-07-31T11:11:41.717Z,100890.00
2022-07-31T11:14:31.896Z,100879.28
2022-07-31T11:17:17.745Z,100881.78
2022-07-31T11:20:47.045Z,100873.50
2022-07-31T11:23:17.767Z,100862.47
2022-07-31T11:25:46.239Z,100863.16
2022-07-31T11:28:27.265Z,100865.19
2022-07-31T11:31:01.541Z,100860.66
2022-07-31T11:33:42.081Z,100860.63
2022-07-31T11:36:11.256Z,100863.53
2022-07-31T11:38:39.387Z,100849.00
2022-07-31T11:41:08.889Z,100840.97
2022-07-31T11:43:40.521Z,100851.72
2022-07-31T11:46:07.722Z,100849.94
2022-07-31T11:48:42.238Z,100850.38
2022-07-31T11:51:16.848Z,100847.06
2022-07-31T11:53:44.511Z,100839.44
2022-07-31T11:56:11.842Z,100835.84
2022-07-31T11:58:45.694Z,100837.97
2022-07-31T12:01:13.082Z,100843.31
2022-07-31T12:03:40.381Z,100843.19
2022-07-31T12:06:07.935Z,100830.78
2022-07-31T12:08:35.591Z,100827.44
2022-07-31T12:11:03.639Z,100817.22
2022-07-31T12:13:31.475Z,100824.59
2022-07-31T12:16:04.313Z,100815.00
2022-07-31T12:18:33.382Z,100814.22
2022-07-31T12:21:01.844Z,100806.13
2022-07-31T12:23:42.382Z,100809.72
2022-07-31T12:26:28.512Z,100804.84
2022-07-31T12:29:13.730Z,100797.63
2022-07-31T12:31:48.267Z,100795.81
2022-07-31T12:34:31.634Z,100800.09
2022-07-31T12:37:02.187Z,100791.94
2022-07-31T12:39:53.703Z,100778.72
2022-07-31T12:42:40.820Z,100778.38
2022-07-31T12:45:19.533Z,100785.03
2022-07-31T12:47:52.014Z,100773.03
2022-07-31T12:50:55.169Z,100774.50
2022-07-31T12:53:22.806Z,100769.94
2022-07-31T12:55:55.530Z,100767.59
2022-07-31T12:58:22.971Z,100767.22
2022-07-31T13:00:50.234Z,100767.44
2022-07-31T13:03:17.520Z,100761.81
2022-07-31T13:05:51.891Z,100768.25
2022-07-31T13:08:19.476Z,100757.56
2022-07-31T13:10:46.891Z,100763.97
2022-07-31T13:13:14.109Z,100766.50
2022-07-31T13:15:43.564Z,100759.59
2022-07-31T13:18:11.812Z,100747.72
2022-07-31T13:20:39.661Z,100751.56
2022-07-31T13:23:07.207Z,100747.50
2022-07-31T13:25:34.545Z,100756.63
2022-07-31T13:28:01.800Z,100741.22
2022-07-31T13:30:29.165Z,100730.16
2022-07-31T13:32:56.388Z,100745.72
2022-07-31T13:35:27.663Z,100732.75
2022-07-31T13:37:56.290Z,100735.75
2022-07-31T13:40:42.163Z,100736.38
2022-07-31T13:43:09.638Z,100733.41
2022-07-31T13:45:37.144Z,100731.88
2022-07-31T13:48:08.914Z,100720.50
2022-07-31T13:50:39.592Z,100726.00
2022-07-31T13:53:07.201Z,100721.56
2022-07-31T13:55:54.996Z,100718.81
2022-07-31T13:58:22.353Z,100716.47
2022-07-31T14:00:50.582Z,100718.16
2022-07-31T14:03:19.854Z,100719.47
2022-07-31T14:05:54.517Z,100713.56
2022-07-31T14:11:01.747Z,100708.88
2022-07-31T14:13:29.217Z,100710.06
2022-07-31T14:15:56.581Z,100706.06
2022-07-31T14:18:25.552Z,100703.00
2022-07-31T14:21:21.653Z,100701.91
2022-07-31T14:23:50.356Z,100706.81
2022-07-31T14:26:20.940Z,100701.13
2022-07-31T14:28:49.538Z,100709.19
2022-07-31T14:31:17.160Z,100697.25
2022-07-31T14:33:44.344Z,100708.28
2022-07-31T14:36:11.688Z,100699.06
2022-07-31T14:38:38.940Z,100702.34
2022-07-31T14:41:07.180Z,100690.44
2022-07-31T14:43:34.430Z,100697.66
2022-07-31T14:46:01.690Z,100687.31
2022-07-31T14:48:29.024Z,100692.84
2022-07-31T14:50:56.946Z,100688.94
2022-07-31T14:53:33.163Z,100699.25
2022-07-31T14:56:03.854Z,100691.25
2022-07-31T14:58:31.529Z,100694.03
2022-07-31T15:01:09.351Z,100695.44
2022-07-31T15:03:42.820Z,100696.22
2022-07-31T15:06:38.686Z,100691.78
2022-07-31T15:09:00.794Z,100694.16
2022-07-31T15:11:59.410Z,100692.56
2022-07-31T15:14:16.270Z,100682.63
2022-07-31T15:16:43.782Z,100680.28
2022-07-31T15:19:22.187Z,100679.06
2022-07-31T15:22:15.988Z,100679.94
2022-07-31T15:24:48.152Z,100675.50
2022-07-31T15:27:17.514Z,100679.50
2022-07-31T15:30:00.365Z,100681.50
2022-07-31T15:32:38.707Z,100685.06
2022-07-31T15:35:07.266Z,100682.28
2022-07-31T15:37:35.757Z,100675.94
2022-07-31T15:40:05.917Z,100673.19
2022-07-31T15:42:37.142Z,100674.81
2022-07-31T15:45:08.888Z,100669.22
2022-07-31T15:47:36.605Z,100676.38
2022-07-31T15:50:07.258Z,100675.59
2022-07-31T15:52:41.745Z,100670.81
2022-07-31T15:55:09.507Z,100674.78
2022-07-31T15:57:40.615Z,100671.22
2022-07-31T16:00:14.362Z,100656.09
2022-07-31T16:02:45.440Z,100656.06
2022-07-31T16:05:21.467Z,100658.06
2022-07-31T16:08:32.748Z,100659.66
2022-07-31T16:11:02.648Z,100657.66
2022-07-31T16:13:37.419Z,100653.28
2022-07-31T16:16:09.828Z,100644.50
2022-07-31T16:18:43.438Z,100648.53
2022-07-31T16:21:13.913Z,100638.94
2022-07-31T16:23:46.234Z,100638.97
2022-07-31T16:26:14.087Z,100639.72
2022-07-31T16:28:49.026Z,100634.56
2022-07-31T16:31:29.874Z,100638.16
2022-07-31T16:33:59.168Z,100632.19
2022-07-31T16:36:31.970Z,100641.31
2022-07-31T16:39:19.966Z,100637.38
2022-07-31T16:41:54.687Z,100631.78
2022-07-31T16:44:29.332Z,100632.97
2022-07-31T16:46:59.330Z,100635.75
2022-07-31T16:49:36.030Z,100633.38
2022-07-31T16:52:06.536Z,100634.56
2022-07-31T16:54:34.074Z,100635.75
2022-07-31T16:57:06.602Z,100634.56
2022-07-31T16:59:34.616Z,100634.16
2022-07-31T17:02:25.473Z,100627.81
2022-07-31T17:04:55.458Z,100630.97
2022-07-31T17:07:23.015Z,100629.75
2022-07-31T17:09:55.271Z,100630.19
2022-07-31T17:12:22.813Z,100631.75
2022-07-31T17:14:57.550Z,100632.19
2022-07-31T17:17:25.099Z,100628.56
2022-07-31T17:19:57.970Z,100630.19
2022-07-31T17:22:34.804Z,100629.34
2022-07-31T17:25:10.193Z,100636.56
2022-07-31T17:27:37.958Z,100635.34
2022-07-31T17:30:05.761Z,100636.13
2022-07-31T17:32:37.176Z,100631.72
2022-07-31T17:35:05.015Z,100640.47
2022-07-31T17:37:35.113Z,100640.09
2022-07-31T17:40:12.972Z,100641.28
2022-07-31T17:42:55.715Z,100638.91
2022-07-31T17:45:23.724Z,100652.44
2022-07-31T17:48:02.449Z,100652.44
2022-07-31T17:50:31.782Z,100648.44
2022-07-31T17:53:03.089Z,100650.41
2022-07-31T17:55:32.882Z,100654.03
2022-07-31T17:58:00.418Z,100647.59
2022-07-31T18:00:32.487Z,100659.13
2022-07-31T18:03:02.770Z,100655.97
2022-07-31T18:05:32.986Z,100661.53
2022-07-31T18:08:01.301Z,100656.75
2022-07-31T18:10:53.396Z,100663.47
2022-07-31T18:13:25.639Z,100663.41
2022-07-31T18:15:53.511Z,100674.63
2022-07-31T18:18:24.244Z,100675.31
2022-07-31T18:20:54.758Z,100668.88
2022-07-31T18:23:29.537Z,100671.22
2022-07-31T18:26:00.567Z,100674.38
2022-07-31T18:28:31.539Z,100674.75
2022-07-31T18:31:03.520Z,100675.91
2022-07-31T18:33:30.970Z,100677.78
2022-07-31T18:35:58.526Z,100680.56
2022-07-31T18:38:26.271Z,100679.78
2022-07-31T18:40:53.729Z,100673.72
2022-07-31T18:43:24.202Z,100680.47
2022-07-31T18:45:51.771Z,100673.66
2022-07-31T18:48:20.496Z,100677.13
2022-07-31T18:50:58.773Z,100684.31
2022-07-31T18:53:31.734Z,100685.81
2022-07-31T18:56:03.177Z,100686.66
2022-07-31T18:58:32.953Z,100690.56
2022-07-31T19:01:02.653Z,100697.56
2022-07-31T19:03:34.731Z,100700.88
2022-07-31T19:06:02.397Z,100698.53
2022-07-31T19:08:32.028Z,100700.06
2022-07-31T19:10:59.581Z,100696.16
2022-07-31T19:13:27.087Z,100702.91
2022-07-31T19:15:54.601Z,100702.47
2022-07-31T19:18:27.970Z,100701.69
2022-07-31T19:21:17.740Z,100711.06
2022-07-31T19:23:47.358Z,100717.50
2022-07-31T19:26:15.699Z,100718.19
2022-07-31T19:28:45.975Z,100730.00
2022-07-31T19:31:13.600Z,100732.75
2022-07-31T19:33:43.362Z,100745.13
2022-07-31T19:36:11.233Z,100739.28
2022-07-31T19:38:40.899Z,100737.19
2022-07-31T19:41:08.590Z,100750.63
2022-07-31T19:43:36.156Z,100748.19
2022-07-31T19:46:11.969Z,100744.72
2022-07-31T19:48:41.402Z,100753.19
2022-07-31T19:51:09.712Z,100750.75
2022-07-31T19:53:39.547Z,100761.47
2022-07-31T19:56:07.343Z,100754.22
2022-07-31T19:58:35.542Z,100755.22
2022-07-31T20:01:03.861Z,100759.19
2022-07-31T20:03:31.520Z,100763.59
2022-07-31T20:05:59.111Z,100770.09
2022-07-31T20:08:28.067Z,100771.16
2022-07-31T20:11:04.426Z,100771.34
2022-07-31T20:13:32.457Z,100779.97
2022-07-31T20:16:00.307Z,100776.63
2022-07-31T20:18:28.885Z,100769.16
2022-07-31T20:21:05.060Z,100772.00
2022-07-31T20:23:34.663Z,100765.44
2022-07-31T20:26:02.335Z,100776.59
2022-07-31T20:28:32.054Z,100774.03
2022-07-31T20:30:59.570Z,100772.59
2022-07-31T20:33:29.397Z,100784.59
2022-07-31T20:35:56.999Z,100780.91
2022-07-31T20:38:25.452Z,100782.94
2022-07-31T20:40:55.450Z,100775.34
2022-07-31T20:43:24.445Z,100780.94
2022-07-31T20:45:52.197Z,100779.66
2022-07-31T20:48:22.171Z,100785.09
2022-07-31T20:50:53.505Z,100784.09
2022-07-31T20:53:22.169Z,100784.69
2022-07-31T20:55:50.584Z,100792.06
2022-07-31T20:58:18.749Z,100790.44
2022-07-31T21:00:47.625Z,100788.03
2022-07-31T21:03:17.487Z,100794.06
2022-07-31T21:05:48.150Z,100795.31
2022-07-31T21:08:16.119Z,100793.03
2022-07-31T21:10:47.185Z,100792.25
2022-07-31T21:13:14.850Z,100799.72
2022-07-31T21:15:45.136Z,100795.28
2022-07-31T21:18:16.447Z,100797.50
2022-07-31T21:20:51.523Z,100797.97
2022-07-31T21:23:29.596Z,100803.53
2022-07-31T21:25:58.265Z,100792.16
2022-07-31T21:28:30.870Z,100789.25
2022-07-31T21:31:04.632Z,100791.28
2022-07-31T21:33:32.936Z,100794.28
2022-07-31T21:36:01.375Z,100797.13
2022-07-31T21:38:28.935Z,100797.94
2022-07-31T21:40:56.819Z,100791.16
2022-07-31T21:43:30.508Z,100802.38
2022-07-31T21:46:07.881Z,100803.91
2022-07-31T21:48:35.825Z,100799.66
2022-07-31T21:51:06.159Z,100802.34
2022-07-31T21:53:33.692Z,100802.75
2022-07-31T21:56:02.163Z,100807.81
2022-07-31T21:58:29.638Z,100810.41
2022-07-31T22:00:57.204Z,100815.88
2022-07-31T22:03:26.255Z,100800.84
2022-07-31T22:06:12.131Z,100810.81
2022-07-31T22:08:39.618Z,100805.31
2022-07-31T22:11:07.439Z,100810.47
2022-07-31T22:13:34.914Z,100813.06
2022-07-31T22:16:02.541Z,100816.75
2022-07-31T22:18:31.327Z,100819.78
2022-07-31T22:20:58.854Z,100818.94
2022-07-31T22:23:27.039Z,100817.66
2022-07-31T22:25:54.393Z,100818.94
2022-07-31T22:28:22.131Z,100811.19
2022-07-31T22:30:49.549Z,100816.38
2022-07-31T22:33:17.274Z,100826.94
2022-07-31T22:35:44.541Z,100839.19
2022-07-31T22:38:11.815Z,100832.22
2022-07-31T22:40:39.762Z,100826.94
2022-07-31T22:44:10.390Z,100829.09
2022-07-31T22:45:58.795Z,100823.56
2022-07-31T22:48:27.918Z,100841.59
2022-07-31T22:50:55.799Z,100830.84
2022-07-31T22:53:26.751Z,100833.63
2022-07-31T22:55:54.044Z,100829.19
2022-07-31T22:58:23.308Z,100831.97
2022-07-31T23:00:50.942Z,100828.63
2022-07-31T23:03:18.269Z,100835.59
2022-07-31T23:06:13.150Z,100835.22
2022-07-31T23:08:32.704Z,100834.13
2022-07-31T23:11:02.521Z,100835.06
2022-07-31T23:13:29.751Z,100838.81
2022-07-31T23:15:56.986Z,100832.84
2022-07-31T23:18:27.512Z,100818.56
2022-07-31T23:20:55.753Z,100820.06
2022-07-31T23:23:22.993Z,100819.88
2022-07-31T23:25:53.348Z,100822.25
2022-07-31T23:28:20.586Z,100830.47
2022-07-31T23:30:47.799Z,100824.47
2022-07-31T23:33:17.058Z,100824.59
2022-07-31T23:35:44.380Z,100822.78
2022-07-31T23:38:11.703Z,100826.06
2022-07-31T23:40:38.941Z,100825.34
2022-07-31T23:43:06.180Z,100827.78
2022-07-31T23:45:33.393Z,100825.16
2022-07-31T23:48:01.685Z,100825.97
2022-07-31T23:50:29.693Z,100819.53
2022-07-31T23:52:57.029Z,100821.09
2022-07-31T23:55:27.232Z,100820.88
2022-07-31T23:57:57.415Z,100827.13
